sensor_id;sensor_type;location;lat;lon;timestamp;pressure;altitude;pressure_sealevel;temperature;humidity
12759;BME280;20944;47.048;15.390;2023-02-04T00:00:32;97570.75;;;6.91;98.18
12759;BME280;20944;47.048;15.390;2023-02-04T00:03:04;97556.19;;;6.78;98.34
12759;BME280;20944;47.048;15.390;2023-02-04T00:05:32;97527.88;;;6.55;98.22
12759;BME280;20944;47.048;15.390;2023-02-04T00:08:00;97572.50;;;6.89;98.59
12759;BME280;20944;47.048;15.390;2023-02-04T00:10:29;97572.63;;;6.81;98.26
12759;BME280;20944;47.048;15.390;2023-02-04T00:12:58;97559.63;;;6.80;98.82
12759;BME280;20944;47.048;15.390;2023-02-04T00:15:28;97557.09;;;6.75;99.54
12759;BME280;20944;47.048;15.390;2023-02-04T00:17:57;97559.81;;;6.66;99.95
12759;BME280;20944;47.048;15.390;2023-02-04T00:20:25;97560.97;;;6.43;100.00
12759;BME280;20944;47.048;15.390;2023-02-04T00:22:53;97580.75;;;6.57;100.00
12759;BME280;20944;47.048;15.390;2023-02-04T00:25:22;97500.59;;;6.15;100.00
12759;BME280;20944;47.048;15.390;2023-02-04T00:27:51;97535.25;;;6.19;100.00
12759;BME280;20944;47.048;15.390;2023-02-04T00:30:19;97574.22;;;6.24;100.00
12759;BME280;20944;47.048;15.390;2023-02-04T00:32:49;97583.97;;;6.06;100.00
12759;BME280;20944;47.048;15.390;2023-02-04T00:35:20;97590.16;;;5.93;100.00
12759;BME280;20944;47.048;15.390;2023-02-04T00:37:49;97504.13;;;5.27;100.00
12759;BME280;20944;47.048;15.390;2023-02-04T00:40:18;97494.72;;;5.13;100.00
12759;BME280;20944;47.048;15.390;2023-02-04T00:42:46;97595.53;;;5.70;100.00
12759;BME280;20944;47.048;15.390;2023-02-04T00:45:14;97611.28;;;5.55;100.00
12759;BME280;20944;47.048;15.390;2023-02-04T00:47:42;97569.03;;;5.34;100.00
12759;BME280;20944;47.048;15.390;2023-02-04T00:50:12;97555.28;;;5.17;100.00
12759;BME280;20944;47.048;15.390;2023-02-04T00:52:40;97587.16;;;5.37;100.00
12759;BME280;20944;47.048;15.390;2023-02-04T00:55:09;97563.03;;;5.23;100.00
12759;BME280;20944;47.048;15.390;2023-02-04T00:57:38;97566.47;;;5.25;100.00
12759;BME280;20944;47.048;15.390;2023-02-04T01:00:07;97555.16;;;5.32;100.00
12759;BME280;20944;47.048;15.390;2023-02-04T01:02:35;97590.38;;;5.68;100.00
12759;BME280;20944;47.048;15.390;2023-02-04T01:05:04;97485.25;;;5.09;100.00
12759;BME280;20944;47.048;15.390;2023-02-04T01:07:33;97604.06;;;5.92;97.56
12759;BME280;20944;47.048;15.390;2023-02-04T01:10:02;97596.22;;;5.93;96.30
12759;BME280;20944;47.048;15.390;2023-02-04T01:12:30;97558.13;;;5.88;91.52
12759;BME280;20944;47.048;15.390;2023-02-04T01:14:59;97567.56;;;5.97;89.63
12759;BME280;20944;47.048;15.390;2023-02-04T01:17:27;97598.75;;;6.00;98.10
12759;BME280;20944;47.048;15.390;2023-02-04T01:19:55;97477.34;;;5.20;97.82
12759;BME280;20944;47.048;15.390;2023-02-04T01:22:24;97577.25;;;5.81;91.52
12759;BME280;20944;47.048;15.390;2023-02-04T01:24:53;97584.97;;;5.93;90.89
12759;BME280;20944;47.048;15.390;2023-02-04T01:27:22;97582.38;;;5.93;87.99
12759;BME280;20944;47.048;15.390;2023-02-04T01:29:50;97565.00;;;5.90;86.78
12759;BME280;20944;47.048;15.390;2023-02-04T01:32:18;97571.75;;;6.13;85.56
12759;BME280;20944;47.048;15.390;2023-02-04T01:34:46;97469.09;;;5.67;85.51
12759;BME280;20944;47.048;15.390;2023-02-04T01:37:14;97569.75;;;6.33;84.74
12759;BME280;20944;47.048;15.390;2023-02-04T01:39:43;97582.03;;;6.22;88.36
12759;BME280;20944;47.048;15.390;2023-02-04T01:42:13;97587.28;;;6.19;89.13
12759;BME280;20944;47.048;15.390;2023-02-04T01:44:41;97583.94;;;6.08;90.60
12759;BME280;20944;47.048;15.390;2023-02-04T01:47:09;97613.56;;;5.94;92.51
12759;BME280;20944;47.048;15.390;2023-02-04T01:49:38;97598.00;;;5.84;89.32
12759;BME280;20944;47.048;15.390;2023-02-04T01:52:07;97591.13;;;5.81;88.99
12759;BME280;20944;47.048;15.390;2023-02-04T01:54:36;97585.00;;;5.91;88.85
12759;BME280;20944;47.048;15.390;2023-02-04T01:57:05;97571.97;;;5.88;88.23
12759;BME280;20944;47.048;15.390;2023-02-04T01:59:38;97567.66;;;5.87;88.58
12759;BME280;20944;47.048;15.390;2023-02-04T02:02:38;97566.88;;;5.79;90.23
12759;BME280;20944;47.048;15.390;2023-02-04T02:05:08;97581.59;;;5.80;88.55
12759;BME280;20944;47.048;15.390;2023-02-04T02:07:37;97576.31;;;5.92;87.56
12759;BME280;20944;47.048;15.390;2023-02-04T02:10:08;97532.31;;;5.69;87.03
12759;BME280;20944;47.048;15.390;2023-02-04T02:12:37;97459.94;;;5.31;86.78
12759;BME280;20944;47.048;15.390;2023-02-04T02:15:08;97559.72;;;6.04;86.73
12759;BME280;20944;47.048;15.390;2023-02-04T02:17:38;97557.97;;;6.03;86.55
12759;BME280;20944;47.048;15.390;2023-02-04T02:20:09;97421.81;;;5.32;86.97
12759;BME280;20944;47.048;15.390;2023-02-04T02:22:46;97555.38;;;6.05;87.01
12759;BME280;20944;47.048;15.390;2023-02-04T02:25:18;97552.88;;;5.89;87.37
12759;BME280;20944;47.048;15.390;2023-02-04T02:27:46;97557.22;;;5.93;87.63
12759;BME280;20944;47.048;15.390;2023-02-04T02:30:15;97549.44;;;5.87;88.30
12759;BME280;20944;47.048;15.390;2023-02-04T02:32:46;97556.41;;;5.85;88.49
12759;BME280;20944;47.048;15.390;2023-02-04T02:35:15;97529.69;;;5.73;88.68
12759;BME280;20944;47.048;15.390;2023-02-04T02:37:43;97538.34;;;5.73;88.28
12759;BME280;20944;47.048;15.390;2023-02-04T02:40:12;97554.72;;;5.81;88.45
12759;BME280;20944;47.048;15.390;2023-02-04T02:42:43;97556.41;;;5.85;88.03
12759;BME280;20944;47.048;15.390;2023-02-04T02:45:17;97545.16;;;5.85;87.59
12759;BME280;20944;47.048;15.390;2023-02-04T02:47:47;97531.28;;;5.86;87.92
12759;BME280;20944;47.048;15.390;2023-02-04T02:50:19;97534.69;;;5.92;86.92
12759;BME280;20944;47.048;15.390;2023-02-04T02:52:47;97530.41;;;5.85;87.58
12759;BME280;20944;47.048;15.390;2023-02-04T02:55:17;97527.97;;;5.70;88.71
12759;BME280;20944;47.048;15.390;2023-02-04T02:57:48;97521.03;;;5.71;88.25
12759;BME280;20944;47.048;15.390;2023-02-04T03:00:19;97502.00;;;5.65;87.53
12759;BME280;20944;47.048;15.390;2023-02-04T03:02:52;97535.63;;;5.82;87.21
12759;BME280;20944;47.048;15.390;2023-02-04T03:05:21;97500.97;;;5.82;86.59
12759;BME280;20944;47.048;15.390;2023-02-04T03:07:50;97525.09;;;5.99;85.67
12759;BME280;20944;47.048;15.390;2023-02-04T03:10:18;97507.81;;;5.93;85.32
12759;BME280;20944;47.048;15.390;2023-02-04T03:12:48;97518.88;;;6.09;85.62
12759;BME280;20944;47.048;15.390;2023-02-04T03:15:17;97524.94;;;6.13;85.18
12759;BME280;20944;47.048;15.390;2023-02-04T03:17:45;97493.94;;;5.90;86.07
12759;BME280;20944;47.048;15.390;2023-02-04T03:20:14;97537.16;;;6.06;86.41
12759;BME280;20944;47.048;15.390;2023-02-04T03:22:43;97529.31;;;6.08;86.54
12759;BME280;20944;47.048;15.390;2023-02-04T03:25:11;97551.03;;;6.05;86.50
12759;BME280;20944;47.048;15.390;2023-02-04T03:27:39;97538.03;;;6.05;87.02
12759;BME280;20944;47.048;15.390;2023-02-04T03:30:10;97548.50;;;5.99;86.72
12759;BME280;20944;47.048;15.390;2023-02-04T03:32:38;97555.50;;;5.89;87.78
12759;BME280;20944;47.048;15.390;2023-02-04T03:35:07;97544.22;;;5.93;86.84
12759;BME280;20944;47.048;15.390;2023-02-04T03:37:35;97532.88;;;6.01;86.16
12759;BME280;20944;47.048;15.390;2023-02-04T03:40:04;97539.78;;;6.05;85.14
12759;BME280;20944;47.048;15.390;2023-02-04T03:42:33;97537.97;;;6.10;85.41
12759;BME280;20944;47.048;15.390;2023-02-04T03:45:01;97511.28;;;5.89;84.60
12759;BME280;20944;47.048;15.390;2023-02-04T03:47:31;97515.44;;;6.09;84.64
12759;BME280;20944;47.048;15.390;2023-02-04T03:49:59;97527.53;;;6.13;84.04
12759;BME280;20944;47.048;15.390;2023-02-04T03:52:27;97512.75;;;6.15;84.05
12759;BME280;20944;47.048;15.390;2023-02-04T03:54:55;97432.75;;;5.61;83.35
12759;BME280;20944;47.048;15.390;2023-02-04T03:57:24;97531.78;;;6.20;82.01
12759;BME280;20944;47.048;15.390;2023-02-04T03:59:52;97567.25;;;6.26;81.42
12759;BME280;20944;47.048;15.390;2023-02-04T04:02:20;97577.53;;;6.35;80.16
12759;BME280;20944;47.048;15.390;2023-02-04T04:04:49;97559.25;;;6.41;80.14
12759;BME280;20944;47.048;15.390;2023-02-04T04:07:18;97568.03;;;6.34;78.91
12759;BME280;20944;47.048;15.390;2023-02-04T04:09:46;97552.28;;;6.44;78.56
12759;BME280;20944;47.048;15.390;2023-02-04T04:12:14;97513.47;;;6.28;78.99
12759;BME280;20944;47.048;15.390;2023-02-04T04:14:42;97558.22;;;6.56;78.74
12759;BME280;20944;47.048;15.390;2023-02-04T04:17:10;97586.00;;;6.54;79.32
12759;BME280;20944;47.048;15.390;2023-02-04T04:19:38;97603.31;;;6.58;78.54
12759;BME280;20944;47.048;15.390;2023-02-04T04:22:08;97583.47;;;6.49;78.91
12759;BME280;20944;47.048;15.390;2023-02-04T04:24:36;97589.41;;;6.59;78.82
12759;BME280;20944;47.048;15.390;2023-02-04T04:27:04;97614.56;;;6.58;79.21
12759;BME280;20944;47.048;15.390;2023-02-04T04:29:32;97616.31;;;6.58;79.20
12759;BME280;20944;47.048;15.390;2023-02-04T04:32:01;97625.91;;;6.56;79.63
12759;BME280;20944;47.048;15.390;2023-02-04T04:34:31;97608.53;;;6.56;80.28
12759;BME280;20944;47.048;15.390;2023-02-04T04:36:59;97637.19;;;6.55;80.70
12759;BME280;20944;47.048;15.390;2023-02-04T04:39:28;97672.78;;;6.51;81.88
12759;BME280;20944;47.048;15.390;2023-02-04T04:41:56;97617.59;;;6.23;82.38
12759;BME280;20944;47.048;15.390;2023-02-04T04:44:25;97659.03;;;6.40;83.51
12759;BME280;20944;47.048;15.390;2023-02-04T04:46:53;97666.19;;;6.22;84.34
12759;BME280;20944;47.048;15.390;2023-02-04T04:49:21;97689.56;;;6.24;84.44
12759;BME280;20944;47.048;15.390;2023-02-04T04:51:49;97681.75;;;6.24;85.70
12759;BME280;20944;47.048;15.390;2023-02-04T04:54:17;97654.13;;;6.09;86.27
12759;BME280;20944;47.048;15.390;2023-02-04T04:56:47;97671.41;;;6.18;86.08
12759;BME280;20944;47.048;15.390;2023-02-04T04:59:15;97684.44;;;6.15;86.60
12759;BME280;20944;47.048;15.390;2023-02-04T05:01:43;97695.75;;;6.11;87.32
12759;BME280;20944;47.048;15.390;2023-02-04T05:04:12;97718.31;;;6.07;87.78
12759;BME280;20944;47.048;15.390;2023-02-04T05:06:40;97730.50;;;6.05;87.75
12759;BME280;20944;47.048;15.390;2023-02-04T05:09:08;97726.16;;;6.03;87.84
12759;BME280;20944;47.048;15.390;2023-02-04T05:11:36;97689.91;;;5.81;88.00
12759;BME280;20944;47.048;15.390;2023-02-04T05:14:06;97730.53;;;6.01;88.49
12759;BME280;20944;47.048;15.390;2023-02-04T05:16:34;97733.09;;;6.05;87.90
12759;BME280;20944;47.048;15.390;2023-02-04T05:19:02;97754.78;;;6.03;88.57
12759;BME280;20944;47.048;15.390;2023-02-04T05:21:30;97754.00;;;5.93;88.13
12759;BME280;20944;47.048;15.390;2023-02-04T05:23:58;97771.31;;;5.94;87.82
12759;BME280;20944;47.048;15.390;2023-02-04T05:26:26;97765.25;;;5.89;88.11
12759;BME280;20944;47.048;15.390;2023-02-04T05:28:56;97783.41;;;5.97;88.39
12759;BME280;20944;47.048;15.390;2023-02-04T05:31:27;97772.22;;;5.91;89.02
12759;BME280;20944;47.048;15.390;2023-02-04T05:33:56;97778.25;;;5.95;88.26
12759;BME280;20944;47.048;15.390;2023-02-04T05:36:24;97776.53;;;5.86;88.27
12759;BME280;20944;47.048;15.390;2023-02-04T05:38:52;97793.81;;;5.97;88.35
12759;BME280;20944;47.048;15.390;2023-02-04T05:41:20;97773.09;;;5.81;88.44
12759;BME280;20944;47.048;15.390;2023-02-04T05:43:48;97787.78;;;5.94;87.80
12759;BME280;20944;47.048;15.390;2023-02-04T05:46:16;97773.91;;;5.89;87.85
12759;BME280;20944;47.048;15.390;2023-02-04T05:48:46;97767.00;;;5.93;87.16
12759;BME280;20944;47.048;15.390;2023-02-04T05:51:14;97747.03;;;5.90;86.96
12759;BME280;20944;47.048;15.390;2023-02-04T05:53:42;97647.88;;;5.21;87.64
12759;BME280;20944;47.048;15.390;2023-02-04T05:56:10;97741.97;;;5.71;88.50
12759;BME280;20944;47.048;15.390;2023-02-04T05:58:39;97761.88;;;5.79;88.64
12759;BME280;20944;47.048;15.390;2023-02-04T06:01:07;97770.53;;;5.77;88.24
12759;BME280;20944;47.048;15.390;2023-02-04T06:03:35;97752.44;;;5.61;87.52
12759;BME280;20944;47.048;15.390;2023-02-04T06:06:05;97752.38;;;5.71;87.41
12759;BME280;20944;47.048;15.390;2023-02-04T06:08:33;97761.91;;;5.73;86.94
12759;BME280;20944;47.048;15.390;2023-02-04T06:11:01;97780.16;;;5.62;85.04
12759;BME280;20944;47.048;15.390;2023-02-04T06:15:55;97785.31;;;5.65;85.94
12759;BME280;20944;47.048;15.390;2023-02-04T06:18:23;97786.25;;;5.60;85.41
12759;BME280;20944;47.048;15.390;2023-02-04T06:20:52;97792.28;;;5.63;85.61
12759;BME280;20944;47.048;15.390;2023-02-04T06:23:21;97805.28;;;5.63;84.56
12759;BME280;20944;47.048;15.390;2023-02-04T06:25:49;97770.72;;;5.43;83.92
12759;BME280;20944;47.048;15.390;2023-02-04T06:28:18;97811.34;;;5.64;84.10
12759;BME280;20944;47.048;15.390;2023-02-04T06:30:46;97825.19;;;5.67;83.08
12759;BME280;20944;47.048;15.390;2023-02-04T06:33:15;97801.88;;;5.46;83.06
12759;BME280;20944;47.048;15.390;2023-02-04T06:35:43;97859.84;;;5.68;83.37
12759;BME280;20944;47.048;15.390;2023-02-04T06:38:11;97864.16;;;5.69;83.76
12759;BME280;20944;47.048;15.390;2023-02-04T06:40:41;97888.44;;;5.68;83.60
12759;BME280;20944;47.048;15.390;2023-02-04T06:43:09;97884.97;;;5.72;84.23
12759;BME280;20944;47.048;15.390;2023-02-04T06:45:38;97878.06;;;5.59;83.29
12759;BME280;20944;47.048;15.390;2023-02-04T06:48:06;97904.00;;;5.74;82.85
12759;BME280;20944;47.048;15.390;2023-02-04T06:50:34;97906.59;;;5.74;83.63
12759;BME280;20944;47.048;15.390;2023-02-04T06:53:02;97921.31;;;5.77;83.76
12759;BME280;20944;47.048;15.390;2023-02-04T06:55:30;97926.53;;;5.75;83.40
12759;BME280;20944;47.048;15.390;2023-02-04T06:58:00;97921.38;;;5.64;84.38
12759;BME280;20944;47.048;15.390;2023-02-04T07:00:28;97947.34;;;5.72;83.86
12759;BME280;20944;47.048;15.390;2023-02-04T07:02:57;97951.69;;;5.73;84.70
12759;BME280;20944;47.048;15.390;2023-02-04T07:05:25;97975.94;;;5.74;86.28
12759;BME280;20944;47.048;15.390;2023-02-04T07:07:55;97963.84;;;5.62;87.03
12759;BME280;20944;47.048;15.390;2023-02-04T07:10:23;97989.78;;;5.71;89.25
12759;BME280;20944;47.048;15.390;2023-02-04T07:12:51;98013.22;;;5.59;91.34
12759;BME280;20944;47.048;15.390;2023-02-04T07:15:21;98013.25;;;5.50;94.47
12759;BME280;20944;47.048;15.390;2023-02-04T07:17:49;98039.22;;;5.39;96.91
12759;BME280;20944;47.048;15.390;2023-02-04T07:20:18;98057.44;;;5.22;99.80
12759;BME280;20944;47.048;15.390;2023-02-04T07:22:46;98016.72;;;4.86;100.00
12759;BME280;20944;47.048;15.390;2023-02-04T07:25:15;98059.13;;;4.82;100.00
12759;BME280;20944;47.048;15.390;2023-02-04T07:27:43;98077.25;;;4.70;100.00
12759;BME280;20944;47.048;15.390;2023-02-04T07:30:12;98062.50;;;4.49;100.00
12759;BME280;20944;47.048;15.390;2023-02-04T07:32:42;98114.34;;;4.40;100.00
12759;BME280;20944;47.048;15.390;2023-02-04T07:35:10;98109.81;;;3.99;100.00
12759;BME280;20944;47.048;15.390;2023-02-04T07:37:39;98100.22;;;3.87;100.00
12759;BME280;20944;47.048;15.390;2023-02-04T07:40:09;98103.59;;;3.75;100.00
12759;BME280;20944;47.048;15.390;2023-02-04T07:42:37;98124.38;;;3.78;100.00
12759;BME280;20944;47.048;15.390;2023-02-04T07:45:06;98093.19;;;3.66;100.00
12759;BME280;20944;47.048;15.390;2023-02-04T07:47:34;98117.44;;;3.76;100.00
12759;BME280;20944;47.048;15.390;2023-02-04T07:50:05;98114.88;;;3.79;100.00
12759;BME280;20944;47.048;15.390;2023-02-04T07:52:33;98122.72;;;3.93;100.00
12759;BME280;20944;47.048;15.390;2023-02-04T07:55:01;98109.88;;;4.13;100.00
12759;BME280;20944;47.048;15.390;2023-02-04T07:57:30;98096.94;;;4.19;100.00
12759;BME280;20944;47.048;15.390;2023-02-04T08:00:00;98108.16;;;4.15;100.00
12759;BME280;20944;47.048;15.390;2023-02-04T08:02:28;98141.09;;;4.29;100.00
12759;BME280;20944;47.048;15.390;2023-02-04T08:04:56;98124.69;;;4.30;100.00
12759;BME280;20944;47.048;15.390;2023-02-04T08:07:26;98130.75;;;4.39;100.00
12759;BME280;20944;47.048;15.390;2023-02-04T08:09:54;98127.22;;;4.20;100.00
12759;BME280;20944;47.048;15.390;2023-02-04T08:12:23;98143.63;;;4.20;100.00
12759;BME280;20944;47.048;15.390;2023-02-04T08:14:51;98146.28;;;4.28;100.00
12759;BME280;20944;47.048;15.390;2023-02-04T08:17:19;98164.56;;;4.48;100.00
12759;BME280;20944;47.048;15.390;2023-02-04T08:19:48;98113.38;;;4.19;100.00
12759;BME280;20944;47.048;15.390;2023-02-04T08:22:16;98184.59;;;4.81;100.00
12759;BME280;20944;47.048;15.390;2023-02-04T08:24:45;98189.00;;;5.06;100.00
12759;BME280;20944;47.048;15.390;2023-02-04T08:27:14;98197.66;;;5.04;100.00
12759;BME280;20944;47.048;15.390;2023-02-04T08:29:42;98195.94;;;5.13;100.00
12759;BME280;20944;47.048;15.390;2023-02-04T08:32:10;98201.19;;;5.23;100.00
12759;BME280;20944;47.048;15.390;2023-02-04T08:34:39;98206.41;;;5.36;100.00
12759;BME280;20944;47.048;15.390;2023-02-04T08:37:07;98124.09;;;5.03;100.00
12759;BME280;20944;47.048;15.390;2023-02-04T08:39:35;98202.97;;;5.65;100.00
12759;BME280;20944;47.048;15.390;2023-02-04T08:42:05;98214.31;;;5.93;100.00
12759;BME280;20944;47.048;15.390;2023-02-04T08:44:34;98121.53;;;5.57;100.00
12759;BME280;20944;47.048;15.390;2023-02-04T08:47:02;98218.63;;;6.23;96.39
12759;BME280;20944;47.048;15.390;2023-02-04T08:49:30;98222.94;;;6.36;89.13
12759;BME280;20944;47.048;15.390;2023-02-04T08:51:59;98224.69;;;6.36;87.26
12759;BME280;20944;47.048;15.390;2023-02-04T08:54:29;98250.69;;;6.16;75.96
12759;BME280;20944;47.048;15.390;2023-02-04T08:56:57;98195.25;;;5.91;74.67
12759;BME280;20944;47.048;15.390;2023-02-04T08:59:27;98199.53;;;5.89;74.96
12759;BME280;20944;47.048;15.390;2023-02-04T09:01:55;98112.88;;;5.58;73.68
12759;BME280;20944;47.048;15.390;2023-02-04T09:04:23;98242.00;;;6.51;70.35
12759;BME280;20944;47.048;15.390;2023-02-04T09:06:51;98267.19;;;6.42;68.43
12759;BME280;20944;47.048;15.390;2023-02-04T09:09:20;98144.91;;;5.77;66.26
12759;BME280;20944;47.048;15.390;2023-02-04T09:11:51;98277.59;;;6.44;64.79
12759;BME280;20944;47.048;15.390;2023-02-04T09:14:19;98260.25;;;5.99;64.89
12759;BME280;20944;47.048;15.390;2023-02-04T09:16:49;98249.81;;;5.85;65.37
12759;BME280;20944;47.048;15.390;2023-02-04T09:19:19;98309.69;;;6.05;65.99
12759;BME280;20944;47.048;15.390;2023-02-04T09:21:51;98273.22;;;5.89;66.39
12759;BME280;20944;47.048;15.390;2023-02-04T09:24:20;98316.63;;;5.98;62.36
12759;BME280;20944;47.048;15.390;2023-02-04T09:26:49;98324.44;;;6.06;63.62
12759;BME280;20944;47.048;15.390;2023-02-04T09:29:17;98304.47;;;5.95;61.86
12759;BME280;20944;47.048;15.390;2023-02-04T09:31:45;98346.97;;;6.14;62.52
12759;BME280;20944;47.048;15.390;2023-02-04T09:34:16;98335.72;;;6.34;63.08
12759;BME280;20944;47.048;15.390;2023-02-04T09:36:44;98344.41;;;6.54;64.28
12759;BME280;20944;47.048;15.390;2023-02-04T09:39:12;98340.06;;;6.62;60.91
12759;BME280;20944;47.048;15.390;2023-02-04T09:41:41;98360.00;;;6.40;59.19
12759;BME280;20944;47.048;15.390;2023-02-04T09:44:13;98335.72;;;6.11;54.97
12759;BME280;20944;47.048;15.390;2023-02-04T09:46:46;98374.75;;;6.18;56.20
12759;BME280;20944;47.048;15.390;2023-02-04T09:49:16;98359.16;;;6.32;57.15
12759;BME280;20944;47.048;15.390;2023-02-04T09:51:45;98367.81;;;6.39;59.45
12759;BME280;20944;47.048;15.390;2023-02-04T09:54:15;98374.78;;;6.41;59.26
12759;BME280;20944;47.048;15.390;2023-02-04T09:56:44;98375.66;;;6.54;58.24
12759;BME280;20944;47.048;15.390;2023-02-04T09:59:15;98369.59;;;6.55;58.34
12759;BME280;20944;47.048;15.390;2023-02-04T10:01:44;98397.34;;;6.84;58.48
12759;BME280;20944;47.048;15.390;2023-02-04T10:04:14;98380.84;;;6.71;57.55
12759;BME280;20944;47.048;15.390;2023-02-04T10:06:43;98407.75;;;6.88;57.44
12759;BME280;20944;47.048;15.390;2023-02-04T10:09:13;98421.66;;;6.87;57.59
12759;BME280;20944;47.048;15.390;2023-02-04T10:11:44;98422.53;;;6.88;57.19
12759;BME280;20944;47.048;15.390;2023-02-04T10:14:18;98423.41;;;6.73;56.50
12759;BME280;20944;47.048;15.390;2023-02-04T10:16:51;98436.41;;;6.58;57.77
12759;BME280;20944;47.048;15.390;2023-02-04T10:19:24;98438.97;;;6.45;58.16
12759;BME280;20944;47.048;15.390;2023-02-04T10:21:55;98440.69;;;6.31;58.81
12759;BME280;20944;47.048;15.390;2023-02-04T10:24:25;98461.47;;;6.11;60.05
12759;BME280;20944;47.048;15.390;2023-02-04T10:27:06;98456.19;;;5.91;61.72
12759;BME280;20944;47.048;15.390;2023-02-04T10:29:34;98456.94;;;5.78;63.83
12759;BME280;20944;47.048;15.390;2023-02-04T10:32:02;98456.03;;;5.68;65.05
12759;BME280;20944;47.048;15.390;2023-02-04T10:34:33;98480.28;;;5.64;65.11
12759;BME280;20944;47.048;15.390;2023-02-04T10:37:18;98431.59;;;5.34;65.78
12759;BME280;20944;47.048;15.390;2023-02-04T10:39:47;98433.25;;;5.22;65.22
12759;BME280;20944;47.048;15.390;2023-02-04T10:42:20;98432.47;;;5.35;64.77
12759;BME280;20944;47.048;15.390;2023-02-04T10:44:49;98458.50;;;5.46;64.58
12759;BME280;20944;47.048;15.390;2023-02-04T10:47:19;98422.84;;;5.16;65.46
12759;BME280;20944;47.048;15.390;2023-02-04T10:49:52;98465.44;;;5.44;64.71
12759;BME280;20944;47.048;15.390;2023-02-04T10:52:27;98405.59;;;5.31;62.31
12759;BME280;20944;47.048;15.390;2023-02-04T10:54:57;98471.47;;;5.35;63.19
12759;BME280;20944;47.048;15.390;2023-02-04T10:57:27;98438.50;;;5.32;62.77
12759;BME280;20944;47.048;15.390;2023-02-04T10:59:58;98469.72;;;5.38;60.69
12759;BME280;20944;47.048;15.390;2023-02-04T11:02:35;98461.06;;;5.38;60.59
12759;BME280;20944;47.048;15.390;2023-02-04T11:05:08;98474.13;;;5.49;58.37
12759;BME280;20944;47.048;15.390;2023-02-04T11:07:39;98470.75;;;5.60;57.34
12759;BME280;20944;47.048;15.390;2023-02-04T11:10:13;98347.41;;;5.02;56.46
12759;BME280;20944;47.048;15.390;2023-02-04T11:12:44;98452.53;;;5.65;56.35
12759;BME280;20944;47.048;15.390;2023-02-04T11:15:36;98442.16;;;5.65;54.04
12759;BME280;20944;47.048;15.390;2023-02-04T11:18:06;98436.88;;;5.53;52.73
12759;BME280;20944;47.048;15.390;2023-02-04T11:20:35;98441.19;;;5.45;51.13
12759;BME280;20944;47.048;15.390;2023-02-04T11:23:29;98441.34;;;5.77;50.04
12759;BME280;20944;47.048;15.390;2023-02-04T11:26:07;98450.94;;;5.85;48.95
12759;BME280;20944;47.048;15.390;2023-02-04T11:28:45;98443.97;;;5.83;48.13
12759;BME280;20944;47.048;15.390;2023-02-04T11:31:26;98417.03;;;5.70;46.89
12759;BME280;20944;47.048;15.390;2023-02-04T11:34:25;98451.88;;;6.00;45.59
12759;BME280;20944;47.048;15.390;2023-02-04T11:37:03;98421.50;;;5.97;45.49
12759;BME280;20944;47.048;15.390;2023-02-04T11:39:37;98454.47;;;5.93;44.70
12759;BME280;20944;47.048;15.390;2023-02-04T11:42:17;98448.31;;;5.81;44.42
12759;BME280;20944;47.048;15.390;2023-02-04T11:44:50;98451.00;;;5.93;44.61
12759;BME280;20944;47.048;15.390;2023-02-04T11:47:20;98474.47;;;6.14;43.67
12759;BME280;20944;47.048;15.390;2023-02-04T11:49:54;98487.44;;;5.98;43.91
12759;BME280;20944;47.048;15.390;2023-02-04T11:52:23;98457.97;;;6.09;42.33
12759;BME280;20944;47.048;15.390;2023-02-04T11:54:57;98476.13;;;5.92;42.21
12759;BME280;20944;47.048;15.390;2023-02-04T11:57:26;98431.75;;;5.62;43.46
12759;BME280;20944;47.048;15.390;2023-02-04T11:59:54;98501.38;;;6.16;43.96
12759;BME280;20944;47.048;15.390;2023-02-04T12:02:24;98497.97;;;6.30;45.48
12759;BME280;20944;47.048;15.390;2023-02-04T12:04:54;98489.31;;;6.46;43.43
12759;BME280;20944;47.048;15.390;2023-02-04T12:07:25;98489.38;;;6.67;45.13
12759;BME280;20944;47.048;15.390;2023-02-04T12:09:56;98476.38;;;6.86;43.31
12759;BME280;20944;47.048;15.390;2023-02-04T12:12:27;98458.13;;;6.98;43.34
12759;BME280;20944;47.048;15.390;2023-02-04T12:14:57;98490.25;;;7.26;43.16
12759;BME280;20944;47.048;15.390;2023-02-04T12:17:28;98474.59;;;7.21;42.76
12759;BME280;20944;47.048;15.390;2023-02-04T12:19:56;98480.72;;;7.07;42.10
12759;BME280;20944;47.048;15.390;2023-02-04T12:22:25;98495.47;;;7.03;43.47
12759;BME280;20944;47.048;15.390;2023-02-04T12:24:53;98502.44;;;7.04;43.70
12759;BME280;20944;47.048;15.390;2023-02-04T12:27:23;98495.47;;;6.98;42.68
12759;BME280;20944;47.048;15.390;2023-02-04T12:29:51;98496.34;;;7.16;42.29
12759;BME280;20944;47.048;15.390;2023-02-04T12:32:19;98473.75;;;7.15;41.81
12759;BME280;20944;47.048;15.390;2023-02-04T12:34:47;98511.09;;;7.46;41.45
12759;BME280;20944;47.048;15.390;2023-02-04T12:37:15;98507.63;;;7.45;41.28
12759;BME280;20944;47.048;15.390;2023-02-04T12:39:44;98512.84;;;7.48;40.71
12759;BME280;20944;47.048;15.390;2023-02-04T12:42:12;98506.75;;;7.37;41.22
12759;BME280;20944;47.048;15.390;2023-02-04T12:44:42;98512.84;;;7.15;40.97
12759;BME280;20944;47.048;15.390;2023-02-04T12:47:10;98517.16;;;6.73;41.06
12759;BME280;20944;47.048;15.390;2023-02-04T12:49:38;98523.25;;;6.87;42.09
12759;BME280;20944;47.048;15.390;2023-02-04T12:52:06;98521.50;;;6.91;42.28
12759;BME280;20944;47.048;15.390;2023-02-04T12:54:35;98525.00;;;7.00;43.41
12759;BME280;20944;47.048;15.390;2023-02-04T12:57:03;98492.00;;;6.86;41.93
12759;BME280;20944;47.048;15.390;2023-02-04T12:59:31;98508.50;;;7.08;42.14
12759;BME280;20944;47.048;15.390;2023-02-04T13:02:01;98513.72;;;7.24;41.13
12759;BME280;20944;47.048;15.390;2023-02-04T13:04:29;98528.47;;;7.28;41.38
12759;BME280;20944;47.048;15.390;2023-02-04T13:06:57;98555.44;;;7.44;42.69
12759;BME280;20944;47.048;15.390;2023-02-04T13:09:27;98498.94;;;7.00;40.62
12759;BME280;20944;47.048;15.390;2023-02-04T13:11:56;98543.25;;;7.00;42.36